sensor_id;sensor_type;location;lat;lon;timestamp;temperature;humidity
25346;DHT22;13300;51.032;3.710;2022-09-09T00:04:37;15.80;99.90
25346;DHT22;13300;51.032;3.710;2022-09-09T00:07:41;15.80;99.90
25346;DHT22;13300;51.032;3.710;2022-09-09T00:16:08;15.70;99.90
25346;DHT22;13300;51.032;3.710;2022-09-09T00:19:05;15.70;99.90
25346;DHT22;13300;51.032;3.710;2022-09-09T00:21:37;15.70;99.90
25346;DHT22;13300;51.032;3.710;2022-09-09T00:24:30;15.80;99.90
25346;DHT22;13300;51.032;3.710;2022-09-09T00:27:06;15.70;99.90
25346;DHT22;13300;51.032;3.710;2022-09-09T00:29:42;15.80;99.90
25346;DHT22;13300;51.032;3.710;2022-09-09T00:32:13;15.80;99.90
25346;DHT22;13300;51.032;3.710;2022-09-09T00:34:47;15.70;99.90
25346;DHT22;13300;51.032;3.710;2022-09-09T00:37:15;15.70;99.90
25346;DHT22;13300;51.032;3.710;2022-09-09T00:39:46;15.70;99.90
25346;DHT22;13300;51.032;3.710;2022-09-09T00:42:42;15.60;99.90
25346;DHT22;13300;51.032;3.710;2022-09-09T00:47:53;15.70;99.90
25346;DHT22;13300;51.032;3.710;2022-09-09T00:51:14;15.60;99.90
25346;DHT22;13300;51.032;3.710;2022-09-09T00:56:22;15.60;99.90
25346;DHT22;13300;51.032;3.710;2022-09-09T00:58:56;15.60;99.90
25346;DHT22;13300;51.032;3.710;2022-09-09T01:01:25;15.60;99.90
25346;DHT22;13300;51.032;3.710;2022-09-09T01:03:56;15.50;99.90
25346;DHT22;13300;51.032;3.710;2022-09-09T01:06:32;15.50;99.90
25346;DHT22;13300;51.032;3.710;2022-09-09T01:09:22;15.50;99.90
25346;DHT22;13300;51.032;3.710;2022-09-09T01:12:24;15.60;99.90
25346;DHT22;13300;51.032;3.710;2022-09-09T01:17:59;15.50;99.90
25346;DHT22;13300;51.032;3.710;2022-09-09T01:20:49;15.50;99.90
25346;DHT22;13300;51.032;3.710;2022-09-09T01:26:19;15.50;99.90
25346;DHT22;13300;51.032;3.710;2022-09-09T01:28:48;15.60;99.90
25346;DHT22;13300;51.032;3.710;2022-09-09T01:31:29;15.50;99.90
25346;DHT22;13300;51.032;3.710;2022-09-09T01:33:56;15.50;99.90
25346;DHT22;13300;51.032;3.710;2022-09-09T01:36:31;15.40;99.90
25346;DHT22;13300;51.032;3.710;2022-09-09T01:38:59;15.40;99.90
25346;DHT22;13300;51.032;3.710;2022-09-09T01:41:25;15.50;99.90
25346;DHT22;13300;51.032;3.710;2022-09-09T01:43:52;15.40;99.90
25346;DHT22;13300;51.032;3.710;2022-09-09T01:46:21;15.50;99.90
25346;DHT22;13300;51.032;3.710;2022-09-09T01:48:48;15.40;99.90
25346;DHT22;13300;51.032;3.710;2022-09-09T01:51:15;15.40;99.90
25346;DHT22;13300;51.032;3.710;2022-09-09T01:53:41;15.40;99.90
25346;DHT22;13300;51.032;3.710;2022-09-09T01:56:14;15.30;99.90
25346;DHT22;13300;51.032;3.710;2022-09-09T02:02:09;15.40;99.90
25346;DHT22;13300;51.032;3.710;2022-09-09T02:04:44;15.40;99.90
25346;DHT22;13300;51.032;3.710;2022-09-09T02:09:47;15.30;99.90
25346;DHT22;13300;51.032;3.710;2022-09-09T02:12:19;15.30;99.90
25346;DHT22;13300;51.032;3.710;2022-09-09T02:14:55;15.30;99.90
25346;DHT22;13300;51.032;3.710;2022-09-09T02:17:27;15.30;99.90
25346;DHT22;13300;51.032;3.710;2022-09-09T02:20:04;15.30;99.90
25346;DHT22;13300;51.032;3.710;2022-09-09T02:22:31;15.40;99.90
25346;DHT22;13300;51.032;3.710;2022-09-09T02:25:00;15.50;99.90
25346;DHT22;13300;51.032;3.710;2022-09-09T02:27:26;15.40;99.90
25346;DHT22;13300;51.032;3.710;2022-09-09T02:29:53;15.40;99.90
25346;DHT22;13300;51.032;3.710;2022-09-09T02:32:22;15.50;99.90
25346;DHT22;13300;51.032;3.710;2022-09-09T02:34:57;15.50;99.90
25346;DHT22;13300;51.032;3.710;2022-09-09T02:37:29;15.50;99.90
25346;DHT22;13300;51.032;3.710;2022-09-09T02:39:57;15.50;99.90
25346;DHT22;13300;51.032;3.710;2022-09-09T02:42:23;15.60;99.90
25346;DHT22;13300;51.032;3.710;2022-09-09T02:44:49;15.60;99.90
25346;DHT22;13300;51.032;3.710;2022-09-09T02:50:06;15.50;99.90
25346;DHT22;13300;51.032;3.710;2022-09-09T02:55:47;15.70;99.90
25346;DHT22;13300;51.032;3.710;2022-09-09T02:58:16;15.70;99.90
25346;DHT22;13300;51.032;3.710;2022-09-09T03:00:47;15.70;99.90
25346;DHT22;13300;51.032;3.710;2022-09-09T03:03:14;15.70;99.90
25346;DHT22;13300;51.032;3.710;2022-09-09T03:05:42;15.80;99.90
25346;DHT22;13300;51.032;3.710;2022-09-09T03:08:08;15.70;99.90
25346;DHT22;13300;51.032;3.710;2022-09-09T03:10:34;15.70;99.90
25346;DHT22;13300;51.032;3.710;2022-09-09T03:13:01;15.70;99.90
25346;DHT22;13300;51.032;3.710;2022-09-09T03:15:28;15.70;99.90
25346;DHT22;13300;51.032;3.710;2022-09-09T03:17:57;15.70;99.90
25346;DHT22;13300;51.032;3.710;2022-09-09T03:20:24;15.60;99.90
25346;DHT22;13300;51.032;3.710;2022-09-09T03:22:52;15.70;99.90
25346;DHT22;13300;51.032;3.710;2022-09-09T03:25:19;15.60;99.90
25346;DHT22;13300;51.032;3.710;2022-09-09T03:27:45;15.60;99.90
25346;DHT22;13300;51.032;3.710;2022-09-09T03:30:11;15.60;99.90
25346;DHT22;13300;51.032;3.710;2022-09-09T03:32:38;15.60;99.90
25346;DHT22;13300;51.032;3.710;2022-09-09T03:35:04;15.70;99.90
25346;DHT22;13300;51.032;3.710;2022-09-09T03:37:30;15.70;99.90
25346;DHT22;13300;51.032;3.710;2022-09-09T03:39:57;15.70;99.90
25346;DHT22;13300;51.032;3.710;2022-09-09T03:42:22;15.70;99.90
25346;DHT22;13300;51.032;3.710;2022-09-09T03:44:49;15.80;99.90
25346;DHT22;13300;51.032;3.710;2022-09-09T03:47:18;15.70;99.90
25346;DHT22;13300;51.032;3.710;2022-09-09T03:49:44;15.90;99.90
25346;DHT22;13300;51.032;3.710;2022-09-09T03:52:10;15.80;99.90
25346;DHT22;13300;51.032;3.710;2022-09-09T03:54:36;15.80;99.90
25346;DHT22;13300;51.032;3.710;2022-09-09T03:57:02;15.80;99.90
25346;DHT22;13300;51.032;3.710;2022-09-09T03:59:28;15.80;99.90
25346;DHT22;13300;51.032;3.710;2022-09-09T04:01:54;15.70;99.90
25346;DHT22;13300;51.032;3.710;2022-09-09T04:04:20;15.80;99.90
25346;DHT22;13300;51.032;3.710;2022-09-09T04:06:47;15.80;99.90
25346;DHT22;13300;51.032;3.710;2022-09-09T04:09:14;15.90;99.90
25346;DHT22;13300;51.032;3.710;2022-09-09T04:11:41;15.80;99.90
25346;DHT22;13300;51.032;3.710;2022-09-09T04:14:07;15.70;99.90
25346;DHT22;13300;51.032;3.710;2022-09-09T04:16:34;15.70;99.90
25346;DHT22;13300;51.032;3.710;2022-09-09T04:19:03;15.60;99.90
25346;DHT22;13300;51.032;3.710;2022-09-09T04:21:30;15.60;99.90
25346;DHT22;13300;51.032;3.710;2022-09-09T04:23:56;15.80;99.90
25346;DHT22;13300;51.032;3.710;2022-09-09T04:26:22;15.80;99.90
25346;DHT22;13300;51.032;3.710;2022-09-09T04:28:48;15.80;99.90
25346;DHT22;13300;51.032;3.710;2022-09-09T04:31:18;15.80;99.90
25346;DHT22;13300;51.032;3.710;2022-09-09T04:33:44;15.80;99.90
25346;DHT22;13300;51.032;3.710;2022-09-09T04:36:10;15.70;99.90
25346;DHT22;13300;51.032;3.710;2022-09-09T04:38:37;15.80;99.90
25346;DHT22;13300;51.032;3.710;2022-09-09T04:41:03;15.80;99.90
25346;DHT22;13300;51.032;3.710;2022-09-09T04:43:29;15.70;99.90
25346;DHT22;13300;51.032;3.710;2022-09-09T04:45:56;15.80;99.90
25346;DHT22;13300;51.032;3.710;2022-09-09T04:48:22;15.80;99.90
25346;DHT22;13300;51.032;3.710;2022-09-09T04:50:58;15.70;99.90
25346;DHT22;13300;51.032;3.710;2022-09-09T04:53:24;15.70;99.90
25346;DHT22;13300;51.032;3.710;2022-09-09T04:55:52;15.70;99.90
25346;DHT22;13300;51.032;3.710;2022-09-09T04:58:17;15.80;99.90
25346;DHT22;13300;51.032;3.710;2022-09-09T05:00:43;15.70;99.90
25346;DHT22;13300;51.032;3.710;2022-09-09T05:03:09;15.60;99.90
25346;DHT22;13300;51.032;3.710;2022-09-09T05:05:35;15.70;99.90
25346;DHT22;13300;51.032;3.710;2022-09-09T05:08:06;15.70;99.90
25346;DHT22;13300;51.032;3.710;2022-09-09T05:10:32;15.70;99.90
25346;DHT22;13300;51.032;3.710;2022-09-09T05:12:58;15.80;99.90
25346;DHT22;13300;51.032;3.710;2022-09-09T05:15:33;15.70;99.90
25346;DHT22;13300;51.032;3.710;2022-09-09T05:18:00;15.80;99.90
25346;DHT22;13300;51.032;3.710;2022-09-09T05:20:27;15.70;99.90
25346;DHT22;13300;51.032;3.710;2022-09-09T05:22:53;15.80;99.90
25346;DHT22;13300;51.032;3.710;2022-09-09T05:25:19;15.80;99.90
25346;DHT22;13300;51.032;3.710;2022-09-09T05:27:45;15.70;99.90
25346;DHT22;13300;51.032;3.710;2022-09-09T05:30:11;15.80;99.90
25346;DHT22;13300;51.032;3.710;2022-09-09T05:32:37;15.90;99.90
25346;DHT22;13300;51.032;3.710;2022-09-09T05:35:04;15.90;99.90
25346;DHT22;13300;51.032;3.710;2022-09-09T05:37:31;15.80;99.90
25346;DHT22;13300;51.032;3.710;2022-09-09T05:39:57;15.80;99.90
25346;DHT22;13300;51.032;3.710;2022-09-09T05:42:23;15.70;99.90
25346;DHT22;13300;51.032;3.710;2022-09-09T05:44:49;15.70;99.90
25346;DHT22;13300;51.032;3.710;2022-09-09T05:47:16;15.80;99.90
25346;DHT22;13300;51.032;3.710;2022-09-09T05:49:42;15.80;99.90
25346;DHT22;13300;51.032;3.710;2022-09-09T05:52:08;15.80;99.90
25346;DHT22;13300;51.032;3.710;2022-09-09T05:54:35;15.90;99.90
25346;DHT22;13300;51.032;3.710;2022-09-09T05:57:03;16.00;99.90
25346;DHT22;13300;51.032;3.710;2022-09-09T05:59:29;16.00;99.90
25346;DHT22;13300;51.032;3.710;2022-09-09T06:01:54;16.00;99.90
25346;DHT22;13300;51.032;3.710;2022-09-09T06:04:20;15.90;99.90
25346;DHT22;13300;51.032;3.710;2022-09-09T06:06:53;15.90;99.90
25346;DHT22;13300;51.032;3.710;2022-09-09T06:09:21;15.70;99.90
25346;DHT22;13300;51.032;3.710;2022-09-09T06:11:46;15.60;99.90
25346;DHT22;13300;51.032;3.710;2022-09-09T06:14:12;15.50;99.90
25346;DHT22;13300;51.032;3.710;2022-09-09T06:16:38;15.30;99.90
25346;DHT22;13300;51.032;3.710;2022-09-09T06:19:04;15.20;99.90
25346;DHT22;13300;51.032;3.710;2022-09-09T06:21:37;15.10;99.90
25346;DHT22;13300;51.032;3.710;2022-09-09T06:24:03;15.10;99.90
25346;DHT22;13300;51.032;3.710;2022-09-09T06:26:31;15.10;99.90
25346;DHT22;13300;51.032;3.710;2022-09-09T06:28:58;15.10;99.90
25346;DHT22;13300;51.032;3.710;2022-09-09T06:31:26;15.10;99.90
25346;DHT22;13300;51.032;3.710;2022-09-09T06:33:56;15.20;99.90
25346;DHT22;13300;51.032;3.710;2022-09-09T06:36:24;15.20;99.90
25346;DHT22;13300;51.032;3.710;2022-09-09T06:38:50;15.20;99.90
25346;DHT22;13300;51.032;3.710;2022-09-09T06:41:17;15.20;99.90
25346;DHT22;13300;51.032;3.710;2022-09-09T06:43:45;15.30;99.90
25346;DHT22;13300;51.032;3.710;2022-09-09T06:46:19;15.40;99.90
25346;DHT22;13300;51.032;3.710;2022-09-09T06:48:45;15.40;99.90
25346;DHT22;13300;51.032;3.710;2022-09-09T06:51:22;15.40;99.90
25346;DHT22;13300;51.032;3.710;2022-09-09T06:53:53;15.60;99.90
25346;DHT22;13300;51.032;3.710;2022-09-09T06:58:49;15.60;99.90
25346;DHT22;13300;51.032;3.710;2022-09-09T07:01:18;15.70;99.90
25346;DHT22;13300;51.032;3.710;2022-09-09T07:03:53;16.20;99.90
25346;DHT22;13300;51.032;3.710;2022-09-09T07:06:31;16.80;99.90
25346;DHT22;13300;51.032;3.710;2022-09-09T07:08:59;16.90;99.90
25346;DHT22;13300;51.032;3.710;2022-09-09T07:11:27;16.70;99.90
25346;DHT22;13300;51.032;3.710;2022-09-09T07:13:54;16.60;99.90
25346;DHT22;13300;51.032;3.710;2022-09-09T07:16:21;16.60;99.90
25346;DHT22;13300;51.032;3.710;2022-09-09T07:18:50;16.30;99.90
25346;DHT22;13300;51.032;3.710;2022-09-09T07:21:19;16.10;99.90
25346;DHT22;13300;51.032;3.710;2022-09-09T07:23:50;16.10;99.90
25346;DHT22;13300;51.032;3.710;2022-09-09T07:26:19;16.10;99.90
25346;DHT22;13300;51.032;3.710;2022-09-09T07:28:45;16.20;99.90
25346;DHT22;13300;51.032;3.710;2022-09-09T07:31:20;16.30;99.90
25346;DHT22;13300;51.032;3.710;2022-09-09T07:33:46;16.50;99.90
25346;DHT22;13300;51.032;3.710;2022-09-09T07:36:24;16.60;99.90
25346;DHT22;13300;51.032;3.710;2022-09-09T07:38:55;16.50;99.90
25346;DHT22;13300;51.032;3.710;2022-09-09T07:41:27;16.60;99.90
25346;DHT22;13300;51.032;3.710;2022-09-09T07:43:56;16.70;99.90
25346;DHT22;13300;51.032;3.710;2022-09-09T07:46:26;16.70;99.90
25346;DHT22;13300;51.032;3.710;2022-09-09T07:48:54;16.80;99.90
25346;DHT22;13300;51.032;3.710;2022-09-09T07:51:24;16.60;99.90
25346;DHT22;13300;51.032;3.710;2022-09-09T07:53:58;16.50;99.90
25346;DHT22;13300;51.032;3.710;2022-09-09T07:56:26;16.40;99.90
25346;DHT22;13300;51.032;3.710;2022-09-09T07:58:53;16.40;99.90
25346;DHT22;13300;51.032;3.710;2022-09-09T08:01:29;16.30;99.90
25346;DHT22;13300;51.032;3.710;2022-09-09T08:04:00;15.90;99.90
25346;DHT22;13300;51.032;3.710;2022-09-09T08:06:28;15.90;99.90
25346;DHT22;13300;51.032;3.710;2022-09-09T08:08:54;15.90;99.90
25346;DHT22;13300;51.032;3.710;2022-09-09T08:11:22;15.90;99.90
25346;DHT22;13300;51.032;3.710;2022-09-09T08:13:49;15.80;99.90
25346;DHT22;13300;51.032;3.710;2022-09-09T08:16:19;15.70;99.90
25346;DHT22;13300;51.032;3.710;2022-09-09T08:18:49;15.70;99.90
25346;DHT22;13300;51.032;3.710;2022-09-09T08:21:18;15.80;99.90
25346;DHT22;13300;51.032;3.710;2022-09-09T08:23:45;15.70;99.90
25346;DHT22;13300;51.032;3.710;2022-09-09T08:26:14;15.70;99.90
25346;DHT22;13300;51.032;3.710;2022-09-09T08:29:00;15.80;99.90
25346;DHT22;13300;51.032;3.710;2022-09-09T08:34:11;15.90;99.90
25346;DHT22;13300;51.032;3.710;2022-09-09T08:36:40;16.00;99.90
25346;DHT22;13300;51.032;3.710;2022-09-09T08:39:09;16.00;99.90
25346;DHT22;13300;51.032;3.710;2022-09-09T08:44:37;16.00;99.90
25346;DHT22;13300;51.032;3.710;2022-09-09T08:52:17;16.30;99.90
25346;DHT22;13300;51.032;3.710;2022-09-09T08:54:45;16.30;99.90
25346;DHT22;13300;51.032;3.710;2022-09-09T08:57:15;16.40;99.90
25346;DHT22;13300;51.032;3.710;2022-09-09T08:59:44;16.40;99.90
25346;DHT22;13300;51.032;3.710;2022-09-09T09:02:21;16.40;99.90
25346;DHT22;13300;51.032;3.710;2022-09-09T09:12:35;16.40;99.90
25346;DHT22;13300;51.032;3.710;2022-09-09T09:17:42;16.50;99.90
25346;DHT22;13300;51.032;3.710;2022-09-09T09:20:16;16.60;99.90
25346;DHT22;13300;51.032;3.710;2022-09-09T09:22:51;16.80;99.90
25346;DHT22;13300;51.032;3.710;2022-09-09T09:25:20;17.10;99.90
25346;DHT22;13300;51.032;3.710;2022-09-09T09:27:52;17.40;99.90
25346;DHT22;13300;51.032;3.710;2022-09-09T09:30:25;17.60;99.90
25346;DHT22;13300;51.032;3.710;2022-09-09T09:33:05;17.80;99.90
25346;DHT22;13300;51.032;3.710;2022-09-09T09:35:31;18.10;99.90
25346;DHT22;13300;51.032;3.710;2022-09-09T09:37:57;19.00;99.90
25346;DHT22;13300;51.032;3.710;2022-09-09T09:40:26;18.80;99.90
25346;DHT22;13300;51.032;3.710;2022-09-09T09:42:59;18.40;99.90
25346;DHT22;13300;51.032;3.710;2022-09-09T09:45:31;18.50;99.90
25346;DHT22;13300;51.032;3.710;2022-09-09T09:48:04;18.20;99.90
25346;DHT22;13300;51.032;3.710;2022-09-09T09:50:31;18.20;99.90
25346;DHT22;13300;51.032;3.710;2022-09-09T09:53:17;18.20;99.90
25346;DHT22;13300;51.032;3.710;2022-09-09T09:55:53;18.20;99.90
25346;DHT22;13300;51.032;3.710;2022-09-09T09:58:19;18.20;99.90
25346;DHT22;13300;51.032;3.710;2022-09-09T10:00:52;17.90;99.90
25346;DHT22;13300;51.032;3.710;2022-09-09T10:05:49;17.80;99.90
25346;DHT22;13300;51.032;3.710;2022-09-09T10:08:19;17.80;99.90
25346;DHT22;13300;51.032;3.710;2022-09-09T10:19:12;17.70;99.90
25346;DHT22;13300;51.032;3.710;2022-09-09T10:24:58;17.90;99.90
25346;DHT22;13300;51.032;3.710;2022-09-09T10:30:18;18.20;99.90
25346;DHT22;13300;51.032;3.710;2022-09-09T10:38:46;18.00;99.90
25346;DHT22;13300;51.032;3.710;2022-09-09T10:41:19;18.10;99.90
25346;DHT22;13300;51.032;3.710;2022-09-09T10:52:01;18.90;99.90
25346;DHT22;13300;51.032;3.710;2022-09-09T10:55:17;18.90;99.90
25346;DHT22;13300;51.032;3.710;2022-09-09T10:57:29;18.80;99.90
25346;DHT22;13300;51.032;3.710;2022-09-09T11:00:02;18.90;99.90
25346;DHT22;13300;51.032;3.710;2022-09-09T11:02:31;18.90;99.90
25346;DHT22;13300;51.032;3.710;2022-09-09T11:05:05;18.80;99.90
25346;DHT22;13300;51.032;3.710;2022-09-09T11:07:56;18.90;99.90
25346;DHT22;13300;51.032;3.710;2022-09-09T11:10:33;18.90;99.90
25346;DHT22;13300;51.032;3.710;2022-09-09T11:13:05;19.00;99.90
25346;DHT22;13300;51.032;3.710;2022-09-09T11:15:43;19.20;99.90
25346;DHT22;13300;51.032;3.710;2022-09-09T11:18:22;19.70;99.90
25346;DHT22;13300;51.032;3.710;2022-09-09T11:21:01;20.40;99.90
25346;DHT22;13300;51.032;3.710;2022-09-09T11:23:41;20.40;99.90
25346;DHT22;13300;51.032;3.710;2022-09-09T11:26:21;19.80;99.90
25346;DHT22;13300;51.032;3.710;2022-09-09T11:40:19;21.40;99.90
25346;DHT22;13300;51.032;3.710;2022-09-09T11:42:47;21.60;99.90
25346;DHT22;13300;51.032;3.710;2022-09-09T11:45:24;21.30;99.90
25346;DHT22;13300;51.032;3.710;2022-09-09T11:47:53;21.00;99.90
25346;DHT22;13300;51.032;3.710;2022-09-09T11:52:50;20.30;99.90
25346;DHT22;13300;51.032;3.710;2022-09-09T11:55:34;19.90;99.90
25346;DHT22;13300;51.032;3.710;2022-09-09T11:58:25;19.70;99.90
25346;DHT22;13300;51.032;3.710;2022-09-09T12:00:51;19.80;99.90
25346;DHT22;13300;51.032;3.710;2022-09-09T12:08:51;21.70;99.90
25346;DHT22;13300;51.032;3.710;2022-09-09T12:11:29;22.70;99.90
25346;DHT22;13300;51.032;3.710;2022-09-09T12:13:58;22.80;99.90
25346;DHT22;13300;51.032;3.710;2022-09-09T12:16:36;22.30;99.90
25346;DHT22;13300;51.032;3.710;2022-09-09T12:33:18;22.20;99.90
25346;DHT22;13300;51.032;3.710;2022-09-09T12:35:49;22.10;99.90
25346;DHT22;13300;51.032;3.710;2022-09-09T12:38:43;21.90;99.90
25346;DHT22;13300;51.032;3.710;2022-09-09T12:41:19;21.80;99.90
25346;DHT22;13300;51.032;3.710;2022-09-09T12:43:45;21.80;99.90
25346;DHT22;13300;51.032;3.710;2022-09-09T12:46:41;21.90;99.90
25346;DHT22;13300;51.032;3.710;2022-09-09T12:51:49;21.50;99.90
25346;DHT22;13300;51.032;3.710;2022-09-09T12:54:15;21.50;99.90
25346;DHT22;13300;51.032;3.710;2022-09-09T12:56:46;21.60;99.90
25346;DHT22;13300;51.032;3.710;2022-09-09T12:59:24;21.40;99.90
25346;DHT22;13300;51.032;3.710;2022-09-09T13:01:59;21.10;99.90
25346;DHT22;13300;51.032;3.710;2022-09-09T13:04:25;20.50;99.90
25346;DHT22;13300;51.032;3.710;2022-09-09T13:06:51;20.50;99.90
25346;DHT22;13300;51.032;3.710;2022-09-09T13:09:18;20.10;99.90
25346;DHT22;13300;51.032;3.710;2022-09-09T13:11:50;20.00;99.90
25346;DHT22;13300;51.032;3.710;2022-09-09T13:14:31;20.20;99.90
25346;DHT22;13300;51.032;3.710;2022-09-09T13:17:02;20.60;99.90
25346;DHT22;13300;51.032;3.710;2022-09-09T13:19:37;21.20;99.90
25346;DHT22;13300;51.032;3.710;2022-09-09T13:22:35;21.60;99.90
25346;DHT22;13300;51.032;3.710;2022-09-09T13:27:39;23.40;99.90
25346;DHT22;13300;51.032;3.710;2022-09-09T13:30:24;24.70;99.90
25346;DHT22;13300;51.032;3.710;2022-09-09T13:35:58;26.00;99.90
25346;DHT22;13300;51.032;3.710;2022-09-09T13:38:25;25.90;99.90
25346;DHT22;13300;51.032;3.710;2022-09-09T13:41:05;25.70;99.90
25346;DHT22;13300;51.032;3.710;2022-09-09T13:43:42;26.50;99.90
25346;DHT22;13300;51.032;3.710;2022-09-09T13:46:37;26.10;99.90
25346;DHT22;13300;51.032;3.710;2022-09-09T13:51:50;24.00;99.90
25346;DHT22;13300;51.032;3.710;2022-09-09T13:54:19;23.20;99.90
25346;DHT22;13300;51.032;3.710;2022-09-09T13:56:45;22.60;99.90
25346;DHT22;13300;51.032;3.710;2022-09-09T13:59:17;22.30;99.90
25346;DHT22;13300;51.032;3.710;2022-09-09T14:01:45;22.30;99.90
25346;DHT22;13300;51.032;3.710;2022-09-09T14:04:12;22.20;99.90
25346;DHT22;13300;51.032;3.710;2022-09-09T14:06:41;22.10;99.90
25346;DHT22;13300;51.032;3.710;2022-09-09T14:09:11;22.20;99.90
25346;DHT22;13300;51.032;3.710;2022-09-09T14:11:37;22.10;99.90
25346;DHT22;13300;51.032;3.710;2022-09-09T14:14:03;22.00;99.90
25346;DHT22;13300;51.032;3.710;2022-09-09T14:16:29;21.80;99.90
25346;DHT22;13300;51.032;3.710;2022-09-09T14:18:55;21.70;99.90
25346;DHT22;13300;51.032;3.710;2022-09-09T14:21:25;21.60;99.90
25346;DHT22;13300;51.032;3.710;2022-09-09T14:23:52;21.60;99.90
25346;DHT22;13300;51.032;3.710;2022-09-09T14:26:23;21.60;99.90
25346;DHT22;13300;51.032;3.710;2022-09-09T14:28:49;21.70;99.90
25346;DHT22;13300;51.032;3.710;2022-09-09T14:31:16;22.30;99.90
25346;DHT22;13300;51.032;3.710;2022-09-09T14:33:45;23.80;99.90
25346;DHT22;13300;51.032;3.710;2022-09-09T14:36:10;25.40;99.90
25346;DHT22;13300;51.032;3.710;2022-09-09T14:38:37;26.40;99.90
25346;DHT22;13300;51.032;3.710;2022-09-09T14:41:10;26.80;99.90
25346;DHT22;13300;51.032;3.710;2022-09-09T14:43:38;27.30;99.90
25346;DHT22;13300;51.032;3.710;2022-09-09T14:46:15;27.80;99.90
25346;DHT22;13300;51.032;3.710;2022-09-09T14:48:42;28.10;99.90
25346;DHT22;13300;51.032;3.710;2022-09-09T14:51:08;28.30;99.90
25346;DHT22;13300;51.032;3.710;2022-09-09T14:53:34;28.50;99.90
25346;DHT22;13300;51.032;3.710;2022-09-09T14:56:14;28.30;99.90
25346;DHT22;13300;51.032;3.710;2022-09-09T14:58:41;28.00;99.90
25346;DHT22;13300;51.032;3.710;2022-09-09T15:01:11;28.20;99.90
25346;DHT22;13300;51.032;3.710;2022-09-09T15:03:40;27.60;99.90
25346;DHT22;13300;51.032;3.710;2022-09-09T15:06:08;26.70;99.90
25346;DHT22;13300;51.032;3.710;2022-09-09T15:08:40;25.80;99.90
25346;DHT22;13300;51.032;3.710;2022-09-09T15:11:07;25.30;99.90
25346;DHT22;13300;51.032;3.710;2022-09-09T15:13:33;25.20;99.90
25346;DHT22;13300;51.032;3.710;2022-09-09T15:16:08;24.70;99.90
25346;DHT22;13300;51.032;3.710;2022-09-09T15:18:36;24.50;99.90
25346;DHT22;13300;51.032;3.710;2022-09-09T15:21:05;25.10;99.90
25346;DHT22;13300;51.032;3.710;2022-09-09T15:23:32;25.30;99.90
25346;DHT22;13300;51.032;3.710;2022-09-09T15:25:58;24.80;99.90
25346;DHT22;13300;51.032;3.710;2022-09-09T15:28:24;24.30;99.90
25346;DHT22;13300;51.032;3.710;2022-09-09T15:30:50;23.60;99.90
25346;DHT22;13300;51.032;3.710;2022-09-09T15:36:30;22.70;99.90
25346;DHT22;13300;51.032;3.710;2022-09-09T15:38:58;22.30;99.90
25346;DHT22;13300;51.032;3.710;2022-09-09T15:41:25;22.10;99.90
25346;DHT22;13300;51.032;3.710;2022-09-09T15:43:52;22.00;99.90
25346;DHT22;13300;51.032;3.710;2022-09-09T15:48:53;21.60;99.90
25346;DHT22;13300;51.032;3.710;2022-09-09T15:51:20;21.60;99.90
25346;DHT22;13300;51.032;3.710;2022-09-09T15:53:46;21.50;99.90
25346;DHT22;13300;51.032;3.710;2022-09-09T15:56:12;21.40;99.90
25346;DHT22;13300;51.032;3.710;2022-09-09T15:58:37;21.40;99.90
25346;DHT22;13300;51.032;3.710;2022-09-09T16:01:04;21.50;99.90
25346;DHT22;13300;51.032;3.710;2022-09-09T16:03:38;21.40;99.90
25346;DHT22;13300;51.032;3.710;2022-09-09T16:06:06;21.50;99.90
25346;DHT22;13300;51.032;3.710;2022-09-09T16:08:37;21.60;99.90
25346;DHT22;13300;51.032;3.710;2022-09-09T16:11:15;21.70;99.90
25346;DHT22;13300;51.032;3.710;2022-09-09T16:13:43;21.90;99.90
25346;DHT22;13300;51.032;3.710;2022-09-09T16:16:11;22.10;99.90
25346;DHT22;13300;51.032;3.710;2022-09-09T16:18:43;22.20;99.90
25346;DHT22;13300;51.032;3.710;2022-09-09T16:21:20;22.40;99.90
25346;DHT22;13300;51.032;3.710;2022-09-09T16:23:46;22.40;99.90
25346;DHT22;13300;51.032;3.710;2022-09-09T16:26:15;22.30;99.90
25346;DHT22;13300;51.032;3.710;2022-09-09T16:28:42;22.20;99.90
25346;DHT22;13300;51.032;3.710;2022-09-09T16:31:09;22.30;99.90
25346;DHT22;13300;51.032;3.710;2022-09-09T16:33:36;22.30;99.90
25346;DHT22;13300;51.032;3.710;2022-09-09T16:36:10;22.20;99.90
25346;DHT22;13300;51.032;3.710;2022-09-09T16:38:37;22.10;99.90
25346;DHT22;13300;51.032;3.710;2022-09-09T16:41:04;22.00;99.90
25346;DHT22;13300;51.032;3.710;2022-09-09T16:43:34;22.00;99.90
25346;DHT22;13300;51.032;3.710;2022-09-09T16:46:01;21.70;99.90
25346;DHT22;13300;51.032;3.710;2022-09-09T16:48:31;21.80;99.90
25346;DHT22;13300;51.032;3.710;2022-09-09T16:51:06;21.50;99.90
25346;DHT22;13300;51.032;3.710;2022-09-09T16:53:33;21.50;99.90
25346;DHT22;13300;51.032;3.710;2022-09-09T16:58:49;21.40;99.90
25346;DHT22;13300;51.032;3.710;2022-09-09T17:01:15;21.10;99.90
25346;DHT22;13300;51.032;3.710;2022-09-09T17:03:41;20.80;99.90
25346;DHT22;13300;51.032;3.710;2022-09-09T17:06:14;20.50;99.90
25346;DHT22;13300;51.032;3.710;2022-09-09T17:08:41;19.80;99.90
25346;DHT22;13300;51.032;3.710;2022-09-09T17:11:14;19.50;99.90
25346;DHT22;13300;51.032;3.710;2022-09-09T17:13:46;19.20;99.90
25346;DHT22;13300;51.032;3.710;2022-09-09T17:16:12;19.00;99.90
25346;DHT22;13300;51.032;3.710;2022-09-09T17:18:38;18.80;99.90
25346;DHT22;13300;51.032;3.710;2022-09-09T17:21:06;18.60;99.90
25346;DHT22;13300;51.032;3.710;2022-09-09T17:23:34;18.60;99.90
25346;DHT22;13300;51.032;3.710;2022-09-09T17:26:05;18.60;99.90
25346;DHT22;13300;51.032;3.710;2022-09-09T17:28:31;18.70;99.90
25346;DHT22;13300;51.032;3.710;2022-09-09T17:31:00;18.80;99.90
25346;DHT22;13300;51.032;3.710;2022-09-09T17:33:29;18.70;99.90
25346;DHT22;13300;51.032;3.710;2022-09-09T17:35:58;18.60;99.90
25346;DHT22;13300;51.032;3.710;2022-09-09T17:38:25;18.50;99.90
25346;DHT22;13300;51.032;3.710;2022-09-09T17:41:02;18.70;99.90
25346;DHT22;13300;51.032;3.710;2022-09-09T17:43:28;18.50;99.90
25346;DHT22;13300;51.032;3.710;2022-09-09T17:45:54;18.50;99.90
25346;DHT22;13300;51.032;3.710;2022-09-09T17:48:19;18.50;99.90
25346;DHT22;13300;51.032;3.710;2022-09-09T17:50:45;18.50;99.90
25346;DHT22;13300;51.032;3.710;2022-09-09T17:53:11;18.50;99.90
25346;DHT22;13300;51.032;3.710;2022-09-09T17:55:37;18.60;99.90
25346;DHT22;13300;51.032;3.710;2022-09-09T17:58:02;18.50;99.90
25346;DHT22;13300;51.032;3.710;2022-09-09T18:00:28;18.40;99.90
25346;DHT22;13300;51.032;3.710;2022-09-09T18:02:55;18.40;99.90
25346;DHT22;13300;51.032;3.710;2022-09-09T18:05:21;18.30;99.90
25346;DHT22;13300;51.032;3.710;2022-09-09T18:07:46;18.20;99.90
25346;DHT22;13300;51.032;3.710;2022-09-09T18:10:13;18.30;99.90